El Tepual Airport
SCTE : now visible

Airfield :











YOU CAN JOIN US ON...

 
LOGIN :

Register | Disclaimer

   EN    FR    IT 

 









Legend :    VFR   Marginal VFR   IFR   Intensive IFR   Very Intensive IFR
Visi :
Ceiling :
>= 8 km
>= 3000ft
5 to 8 km
1000 to 3000 ft
1500m to 5 km
500 to 1000 ft
800 to 1500m
200 to 500 ft
< 800m
< 200 ft
Symbols :   Thunderstorms  Fog  Heavy snow  Heavy precipitations  Wind > 20 kt






- Airport Elevation : 294 ft
- IATA code : PMC


SCTE - El Tepual

CURRENT METAR :
  • 261900Z 26006KT 230V330 9999 FEW030 OVC036 12/06 Q1024 NOSIG

EXPIRED METARs :
  • 261800Z 25005KT 180V310 9999 OVC033 12/06 Q1024 NOSIG
  • 261700Z 21005KT 9999 SCT018 OVC022 11/06 Q1024 NOSIG

TAF TAF SCTE
Valid from the 26 at 18:00 until the 27 at 18:00 UTC


261626Z 2618/2718 22007KT 9999 BKN020 OVC030 TX12/2619Z TN04/2710Z
TEMPO 2618/2621 16005KT -SHRA OVC020
BECMG 2622/2624 VRB02KT SCT025 OVC035
BECMG 2705/2707 FEW018 SCT035
TEMPO 2706/2712 0800 FG OVC002
BECMG 2712/2714 SCT008 BKN016
BECMG 2715/2717 23005KT SCT025 OVC040
SCTZ FIR / South America



MET'MAP, your aeronautical weather chart ! - Copyright ORBIFLY December 2007 - Disclaimer

ORBIFLY MET'MAP TEAM :

Programming & Development : Alexandra Zaïnal
Concept & original design : Baudouin d'Aumeries
Assistance for programming : Marc-Olivier Méhu
Technical & hardware support : Manuel Goepfert

Contact : metmap@orbifly.com




SOURCES & CREDITS :

   NOAA       Earth
Advisory